Time;durP1;ratioP1;P1;durP2;ratioP2;P2;SDS_P1;SDS_P2;PMS_P1;PMS_P2;Temp;Humidity;BMP_temperature;BMP_pressure;BME280_temperature;BME280_humidity;BME280_pressure;Samples;Min_cycle;Max_cycle;Signal;HPM_P1;HPM_P2
2021/04/25 00:02:21;;;;;;;11.93;7.95;;;8.10;48.60;;;;;;5072553;28;20196;-68
2021/04/25 00:04:48;;;;;;;8.98;6.88;;;8.00;48.50;;;;;;5076660;28;20566;-68
2021/04/25 00:07:15;;;;;;;9.07;5.93;;;8.00;48.90;;;;;;5082182;28;20272;-68
2021/04/25 00:09:42;;;;;;;9.32;6.25;;;8.00;49.10;;;;;;5074685;28;20216;-68
2021/04/25 00:12:11;;;;;;;8.95;6.60;;;7.80;49.30;;;;;;5092270;28;20193;-68
2021/04/25 00:14:37;;;;;;;8.65;6.20;;;7.70;49.70;;;;;;5089598;28;20243;-70
2021/04/25 00:17:04;;;;;;;8.77;6.45;;;7.50;49.70;;;;;;5071877;28;20251;-69
2021/04/25 00:19:31;;;;;;;11.15;6.70;;;7.50;49.90;;;;;;5072291;28;20263;-67
2021/04/25 00:21:57;;;;;;;9.25;6.30;;;7.40;50.40;;;;;;5092206;28;20624;-68
2021/04/25 00:24:23;;;;;;;8.63;6.05;;;7.40;50.80;;;;;;5091786;28;20231;-68
2021/04/25 00:26:50;;;;;;;7.50;5.35;;;7.30;50.80;;;;;;5074421;28;20679;-68
2021/04/25 00:29:18;;;;;;;7.10;5.30;;;7.20;50.90;;;;;;5075829;28;20189;-68
2021/04/25 00:31:44;;;;;;;6.97;3.90;;;7.20;50.40;;;;;;5075687;28;20212;-70
2021/04/25 00:34:11;;;;;;;9.30;5.30;;;7.10;49.30;;;;;;5075616;28;20209;-68
2021/04/25 00:36:37;;;;;;;8.88;5.50;;;7.00;49.60;;;;;;5093355;28;20751;-68
2021/04/25 00:39:04;;;;;;;10.68;6.40;;;7.00;49.90;;;;;;5095972;28;20242;-68
2021/04/25 00:41:31;;;;;;;10.02;6.10;;;7.00;50.10;;;;;;5078628;28;20208;-68
2021/04/25 00:43:57;;;;;;;10.40;6.05;;;7.00;50.80;;;;;;5075141;28;20251;-68
2021/04/25 00:46:25;;;;;;;12.13;7.20;;;7.00;50.90;;;;;;5090895;28;20185;-68
2021/04/25 00:48:52;;;;;;;9.45;6.45;;;6.90;50.70;;;;;;5095546;28;20199;-68
2021/04/25 00:51:23;;;;;;;7.95;5.70;;;6.80;51.20;;;;;;5079822;28;20579;-68
2021/04/25 00:53:50;;;;;;;8.90;6.43;;;6.80;51.20;;;;;;5075182;28;20190;-68
2021/04/25 00:56:17;;;;;;;10.38;6.63;;;6.80;51.30;;;;;;5089587;28;20215;-68
2021/04/25 00:58:44;;;;;;;8.80;6.38;;;6.80;51.30;;;;;;5095140;28;20189;-68
2021/04/25 01:01:10;;;;;;;7.40;5.75;;;6.70;51.80;;;;;;5081562;28;20666;-68
2021/04/25 01:03:38;;;;;;;15.70;6.30;;;6.60;51.60;;;;;;5074819;28;20543;-68
2021/04/25 01:06:05;;;;;;;9.60;6.75;;;6.60;51.80;;;;;;5087320;28;20185;-68
2021/04/25 01:08:31;;;;;;;11.15;7.05;;;6.60;51.70;;;;;;5095051;28;20216;-68
2021/04/25 01:10:58;;;;;;;11.07;5.53;;;6.60;51.80;;;;;;5083390;28;20255;-68
2021/04/25 01:13:25;;;;;;;9.82;6.70;;;6.60;52.10;;;;;;5074729;28;20197;-68
2021/04/25 01:15:51;;;;;;;10.95;6.10;;;6.60;52.10;;;;;;5085047;28;20204;-74
2021/04/25 01:18:18;;;;;;;10.93;6.85;;;6.50;52.60;;;;;;5095126;28;20333;-68
2021/04/25 01:20:45;;;;;;;9.30;7.30;;;6.50;53.00;;;;;;5085267;28;20190;-68
2021/04/25 01:23:13;;;;;;;8.43;6.40;;;6.40;53.20;;;;;;5074907;28;20212;-68
2021/04/25 01:25:39;;;;;;;17.13;6.75;;;6.40;53.30;;;;;;5083324;28;20189;-68
2021/04/25 01:28:06;;;;;;;7.72;6.63;;;6.40;53.20;;;;;;5094546;28;20280;-68
2021/04/25 01:30:34;;;;;;;10.50;6.13;;;6.30;53.40;;;;;;5092692;28;20220;-68
2021/04/25 01:33:00;;;;;;;10.10;6.30;;;6.30;53.60;;;;;;5094355;28;20189;-68
2021/04/25 01:35:27;;;;;;;10.50;5.90;;;6.30;53.20;;;;;;5087434;28;20186;-68
2021/04/25 01:37:56;;;;;;;9.45;6.20;;;6.30;53.20;;;;;;5073705;28;20221;-68
2021/04/25 01:40:26;;;;;;;12.10;5.93;;;6.30;53.30;;;;;;5079488;28;20181;-68
2021/04/25 01:42:53;;;;;;;9.63;5.75;;;6.30;53.50;;;;;;5094504;28;20288;-68
2021/04/25 01:45:19;;;;;;;13.77;6.25;;;6.30;53.30;;;;;;5088587;28;20186;-69
2021/04/25 01:47:47;;;;;;;9.45;6.82;;;6.20;53.10;;;;;;5074322;28;20194;-68
2021/04/25 01:50:14;;;;;;;11.52;6.22;;;6.20;52.80;;;;;;5093539;28;20216;-68
2021/04/25 01:52:40;;;;;;;9.10;5.63;;;6.20;53.10;;;;;;5094191;28;20185;-69
2021/04/25 01:55:08;;;;;;;13.65;6.50;;;6.20;53.30;;;;;;5077985;28;20189;-68
2021/04/25 01:57:36;;;;;;;9.52;6.07;;;6.20;53.50;;;;;;5080385;28;20186;-67
2021/04/25 02:00:06;;;;;;;9.27;6.03;;;6.20;53.70;;;;;;5074194;28;20266;-68
2021/04/25 02:02:33;;;;;;;8.40;5.72;;;6.20;54.10;;;;;;5067488;28;20185;-68
2021/04/25 02:05:01;;;;;;;10.90;6.32;;;6.20;53.60;;;;;;5092073;28;20242;-68
2021/04/25 02:07:27;;;;;;;10.05;6.72;;;6.10;53.30;;;;;;5093189;28;20211;-68
2021/04/25 02:09:54;;;;;;;8.23;5.53;;;6.00;54.10;;;;;;5093491;28;20274;-68
2021/04/25 02:12:21;;;;;;;10.02;5.80;;;5.90;54.30;;;;;;5073601;28;20193;-68
2021/04/25 02:14:49;;;;;;;8.27;6.40;;;5.90;54.60;;;;;;5073950;28;20637;-69
2021/04/25 02:17:16;;;;;;;6.18;5.32;;;5.80;55.10;;;;;;5093850;28;20207;-68
2021/04/25 02:19:44;;;;;;;10.90;5.97;;;5.90;55.00;;;;;;5093717;28;20204;-68
2021/04/25 02:22:11;;;;;;;7.22;5.50;;;5.90;55.00;;;;;;5092990;28;20200;-67
2021/04/25 02:24:37;;;;;;;6.95;5.25;;;5.90;55.00;;;;;;5093772;28;20188;-68
2021/04/25 02:27:04;;;;;;;8.90;6.18;;;5.90;55.00;;;;;;5074868;28;20314;-68
2021/04/25 02:29:30;;;;;;;8.95;5.28;;;5.80;55.30;;;;;;5073383;28;20251;-67
2021/04/25 02:31:58;;;;;;;8.43;5.60;;;5.80;54.90;;;;;;5089861;28;20190;-68
2021/04/25 02:34:25;;;;;;;8.80;5.90;;;5.80;54.90;;;;;;5093361;28;20647;-68
2021/04/25 02:36:52;;;;;;;7.57;6.22;;;5.90;55.50;;;;;;5091366;28;20213;-68
2021/04/25 02:39:19;;;;;;;10.18;8.15;;;5.90;55.40;;;;;;5093463;28;20189;-68
2021/04/25 02:41:46;;;;;;;7.43;5.28;;;5.90;55.30;;;;;;5077805;28;20670;-68
2021/04/25 02:44:12;;;;;;;15.38;5.47;;;5.80;55.50;;;;;;5072992;28;20194;-68
2021/04/25 02:46:39;;;;;;;8.00;4.78;;;5.80;55.20;;;;;;5087170;28;20189;-68
2021/04/25 02:49:06;;;;;;;8.85;5.85;;;5.70;55.30;;;;;;5092548;28;20266;-68
2021/04/25 02:51:33;;;;;;;7.95;5.00;;;5.70;55.70;;;;;;5079446;28;20224;-67
2021/04/25 02:53:59;;;;;;;8.90;4.82;;;5.70;55.80;;;;;;5072991;28;20197;-68
2021/04/25 02:56:27;;;;;;;9.77;6.55;;;5.70;56.00;;;;;;5086683;28;20218;-68
2021/04/25 02:58:54;;;;;;;7.40;4.75;;;5.70;55.50;;;;;;5092287;28;20184;-69
2021/04/25 03:01:20;;;;;;;10.32;6.25;;;5.70;56.50;;;;;;5079701;28;20590;-68
2021/04/25 03:03:47;;;;;;;7.43;4.47;;;5.80;55.80;;;;;;5072710;28;20220;-68
2021/04/25 03:06:14;;;;;;;11.45;5.43;;;5.70;55.40;;;;;;5085198;28;20651;-68
2021/04/25 03:08:40;;;;;;;8.20;5.97;;;5.70;55.50;;;;;;5092854;28;20203;-67
2021/04/25 03:11:07;;;;;;;8.20;5.47;;;5.60;55.70;;;;;;5081189;28;20217;-68
2021/04/25 03:13:33;;;;;;;8.23;5.53;;;5.70;55.90;;;;;;5072526;28;20644;-68
2021/04/25 03:16:00;;;;;;;11.93;5.20;;;5.70;55.70;;;;;;5082669;28;20181;-67
2021/04/25 03:18:26;;;;;;;8.32;6.30;;;5.70;55.70;;;;;;5092889;28;20257;-68
2021/04/25 03:20:53;;;;;;;6.10;4.70;;;5.60;55.50;;;;;;5083334;28;20638;-70
2021/04/25 03:23:21;;;;;;;8.88;5.88;;;5.60;55.90;;;;;;5072516;28;20191;-68
2021/04/25 03:25:47;;;;;;;10.80;5.72;;;5.60;56.00;;;;;;5080767;28;20223;-67
2021/04/25 03:28:14;;;;;;;7.63;5.47;;;5.60;56.20;;;;;;5092800;28;20655;-68
2021/04/25 03:30:40;;;;;;;10.20;4.97;;;5.60;56.10;;;;;;5079786;28;20225;-68
2021/04/25 03:33:07;;;;;;;8.07;5.00;;;5.60;56.00;;;;;;5072201;28;20190;-67
2021/04/25 03:35:34;;;;;;;7.50;5.30;;;5.60;55.90;;;;;;5082838;28;20585;-69
2021/04/25 03:38:00;;;;;;;10.75;6.07;;;5.60;55.90;;;;;;5091783;28;20263;-68
2021/04/25 03:40:27;;;;;;;6.53;4.75;;;5.60;56.00;;;;;;5092699;28;20275;-68
2021/04/25 03:42:54;;;;;;;10.43;4.90;;;5.60;56.20;;;;;;5092184;28;20577;-69
2021/04/25 03:45:21;;;;;;;10.60;6.38;;;5.50;56.60;;;;;;5072369;28;20225;-70
2021/04/25 03:47:49;;;;;;;8.02;5.68;;;5.40;56.90;;;;;;5072492;28;20190;-68
2021/04/25 03:50:17;;;;;;;10.02;5.07;;;5.40;57.10;;;;;;5073041;28;20209;-68
2021/04/25 03:52:44;;;;;;;9.45;5.50;;;5.50;56.90;;;;;;5072189;28;20186;-68
2021/04/25 03:55:12;;;;;;;10.65;5.28;;;5.40;56.80;;;;;;5089885;28;20216;-67
2021/04/25 03:57:39;;;;;;;7.78;4.78;;;5.40;57.10;;;;;;5092446;28;20189;-68
2021/04/25 04:00:09;;;;;;;8.75;5.75;;;5.40;56.80;;;;;;5076130;28;20197;-69
2021/04/25 04:02:35;;;;;;;6.68;5.15;;;5.30;56.90;;;;;;5094740;28;20276;-68
2021/04/25 04:05:02;;;;;;;8.27;5.70;;;5.30;57.30;;;;;;5080080;28;20664;-68
2021/04/25 04:07:28;;;;;;;10.10;5.78;;;5.30;57.10;;;;;;5076199;28;20189;-68
2021/04/25 04:09:55;;;;;;;7.32;5.15;;;5.30;56.50;;;;;;5091172;28;20216;-69
2021/04/25 04:12:22;;;;;;;8.40;4.70;;;5.30;56.90;;;;;;5096566;28;20185;-68
2021/04/25 04:14:51;;;;;;;8.43;5.38;;;5.30;57.00;;;;;;5081928;28;20557;-68
2021/04/25 04:17:18;;;;;;;7.93;5.13;;;5.30;57.00;;;;;;5088929;28;20185;-68
2021/04/25 04:19:45;;;;;;;7.15;4.78;;;5.30;57.10;;;;;;5096332;28;20189;-68
2021/04/25 04:22:11;;;;;;;9.70;6.00;;;5.30;57.30;;;;;;5076026;28;20247;-67
2021/04/25 04:24:38;;;;;;;10.45;5.35;;;5.30;56.80;;;;;;5076040;28;20236;-68
2021/04/25 04:27:05;;;;;;;5.82;4.78;;;5.30;56.70;;;;;;5076947;28;20182;-68
2021/04/25 04:29:32;;;;;;;6.35;4.97;;;5.30;56.60;;;;;;5087873;28;20185;-68
2021/04/25 04:32:00;;;;;;;6.50;4.70;;;5.30;56.80;;;;;;5095845;28;20199;-67
2021/04/25 04:34:27;;;;;;;8.60;5.05;;;5.20;56.90;;;;;;5085034;28;20194;-68
2021/04/25 04:36:54;;;;;;;11.73;5.07;;;5.20;57.20;;;;;;5075567;28;20617;-68
2021/04/25 04:39:21;;;;;;;9.23;5.20;;;5.20;57.00;;;;;;5076672;28;20181;-68
2021/04/25 04:41:50;;;;;;;6.90;5.10;;;5.20;56.60;;;;;;5075730;28;20269;-67
2021/04/25 04:44:17;;;;;;;8.80;4.90;;;5.10;56.40;;;;;;5084003;28;20185;-68
2021/04/25 04:46:43;;;;;;;5.95;4.05;;;5.10;56.90;;;;;;5095703;28;20189;-68
2021/04/25 04:49:10;;;;;;;16.63;6.25;;;5.00;57.10;;;;;;5095508;28;20181;-68
2021/04/25 04:51:37;;;;;;;6.38;4.85;;;5.00;57.20;;;;;;5096034;28;20308;-68
2021/04/25 04:54:04;;;;;;;9.50;6.32;;;5.00;57.70;;;;;;5089436;28;20206;-68
2021/04/25 04:56:30;;;;;;;10.55;6.57;;;5.10;57.80;;;;;;5074715;28;20194;-68
2021/04/25 04:58:57;;;;;;;8.88;5.78;;;5.20;58.10;;;;;;5079853;28;20189;-71
2021/04/25 05:01:23;;;;;;;9.30;6.07;;;5.30;58.10;;;;;;5095078;28;20211;-70
2021/04/25 05:03:50;;;;;;;8.27;5.05;;;5.40;58.00;;;;;;5092910;28;20192;-70
2021/04/25 05:06:17;;;;;;;8.70;5.47;;;5.30;58.00;;;;;;5095551;28;20189;-68
2021/04/25 05:08:44;;;;;;;10.98;5.45;;;5.40;58.30;;;;;;5091453;28;20182;-70
2021/04/25 05:11:10;;;;;;;8.57;5.40;;;5.40;58.60;;;;;;5074197;28;20221;-68
2021/04/25 05:13:37;;;;;;;16.27;9.52;;;5.50;58.40;;;;;;5075583;28;20201;-68
2021/04/25 05:16:04;;;;;;;10.35;5.85;;;5.60;58.30;;;;;;5074832;28;20193;-68
2021/04/25 05:18:30;;;;;;;9.20;6.43;;;5.60;58.10;;;;;;5075707;28;20193;-68
2021/04/25 05:20:57;;;;;;;10.25;5.75;;;5.70;58.20;;;;;;5095147;28;20189;-68
2021/04/25 05:23:24;;;;;;;9.55;6.10;;;5.90;58.10;;;;;;5094403;28;20185;-69
2021/04/25 05:25:51;;;;;;;9.95;5.88;;;5.90;57.90;;;;;;5074961;28;20200;-68
2021/04/25 05:28:17;;;;;;;11.60;6.25;;;6.10;57.80;;;;;;5079995;28;20177;-68
2021/04/25 05:30:44;;;;;;;15.85;6.50;;;6.20;58.00;;;;;;5094781;28;20228;-68
2021/04/25 05:33:11;;;;;;;10.05;7.22;;;6.30;57.60;;;;;;5090791;28;20220;-68
2021/04/25 05:35:37;;;;;;;11.27;6.60;;;6.30;57.40;;;;;;5074812;28;20193;-68
2021/04/25 05:38:04;;;;;;;13.45;7.28;;;6.50;58.10;;;;;;5076348;28;20695;-67
2021/04/25 05:40:31;;;;;;;9.65;6.70;;;6.60;58.00;;;;;;5095019;28;20581;-69
2021/04/25 05:42:58;;;;;;;19.98;6.72;;;6.80;58.30;;;;;;5093476;28;20204;-68
2021/04/25 05:45:24;;;;;;;10.00;6.32;;;7.00;58.10;;;;;;5074495;28;20196;-68
2021/04/25 05:47:53;;;;;;;11.88;7.20;;;7.10;58.60;;;;;;5074764;28;20648;-68
2021/04/25 05:50:22;;;;;;;11.60;6.65;;;7.30;58.90;;;;;;5094491;28;20595;-68
2021/04/25 05:52:49;;;;;;;9.50;6.53;;;7.40;58.10;;;;;;5094621;28;20189;-68
2021/04/25 05:55:17;;;;;;;11.80;6.95;;;7.60;57.70;;;;;;5093791;28;20647;-68
2021/04/25 05:57:44;;;;;;;12.15;6.85;;;7.60;56.90;;;;;;5094615;28;20193;-68
2021/04/25 06:00:14;;;;;;;9.25;7.03;;;7.60;57.20;;;;;;5075821;28;20193;-68
2021/04/25 06:02:40;;;;;;;11.85;7.28;;;7.60;57.60;;;;;;5074248;28;20675;-68
2021/04/25 06:05:08;;;;;;;11.07;6.72;;;7.70;57.90;;;;;;5088759;28;20181;-68
2021/04/25 06:07:35;;;;;;;10.10;6.93;;;7.80;58.40;;;;;;5073975;28;20243;-68
2021/04/25 06:10:01;;;;;;;9.77;6.53;;;7.80;58.40;;;;;;5090822;28;20209;-68
2021/04/25 06:12:28;;;;;;;9.60;6.53;;;8.00;58.80;;;;;;5094380;28;20192;-68
2021/04/25 06:14:55;;;;;;;9.10;6.55;;;8.10;59.00;;;;;;5080316;28;20189;-69
2021/04/25 06:17:23;;;;;;;10.57;7.13;;;8.30;58.10;;;;;;5092224;28;20201;-70
2021/04/25 06:19:49;;;;;;;8.65;6.40;;;8.50;56.90;;;;;;5088647;28;20185;-69
2021/04/25 06:22:16;;;;;;;13.20;7.75;;;8.70;56.50;;;;;;5091456;28;20234;-68
2021/04/25 06:24:43;;;;;;;9.15;7.03;;;9.00;56.10;;;;;;5092131;28;20618;-68
2021/04/25 06:27:12;;;;;;;9.30;7.35;;;9.30;55.50;;;;;;5090149;28;20189;-70
2021/04/25 06:29:38;;;;;;;11.02;8.02;;;9.50;55.50;;;;;;5091738;28;20245;-69
2021/04/25 06:32:06;;;;;;;10.25;7.90;;;9.70;54.80;;;;;;5089201;28;20189;-68
2021/04/25 06:34:33;;;;;;;9.80;6.78;;;9.80;54.40;;;;;;5091963;28;20235;-68
2021/04/25 06:37:02;;;;;;;12.25;7.35;;;9.80;52.90;;;;;;5088224;28;20217;-69
2021/04/25 06:39:28;;;;;;;11.98;7.65;;;9.90;51.80;;;;;;5087668;28;20193;-69
2021/04/25 06:41:55;;;;;;;9.38;7.30;;;10.00;51.80;;;;;;5091285;28;20196;-68
2021/04/25 06:44:24;;;;;;;11.98;8.07;;;10.20;52.10;;;;;;5091086;28;20188;-68
2021/04/25 06:46:50;;;;;;;13.55;8.30;;;10.30;52.30;;;;;;5088928;28;20228;-69
2021/04/25 06:49:18;;;;;;;12.95;9.63;;;10.50;51.90;;;;;;5088340;28;20181;-70
2021/04/25 06:51:44;;;;;;;10.63;8.02;;;10.60;51.70;;;;;;5091521;28;20630;-69
2021/04/25 06:54:11;;;;;;;10.50;8.55;;;10.80;52.00;;;;;;5088936;28;20231;-68
2021/04/25 06:56:38;;;;;;;12.27;8.15;;;10.90;49.90;;;;;;5091335;28;20189;-69
2021/04/25 06:59:05;;;;;;;11.30;8.23;;;11.00;50.30;;;;;;5089634;28;20177;-68
2021/04/25 07:01:31;;;;;;;13.77;8.00;;;11.10;50.10;;;;;;5090688;28;20655;-66
2021/04/25 07:03:58;;;;;;;13.43;9.20;;;11.30;50.30;;;;;;5089343;28;20266;-67
2021/04/25 07:06:26;;;;;;;11.15;8.65;;;11.50;49.50;;;;;;5089892;28;20238;-69
2021/04/25 07:08:52;;;;;;;11.45;9.43;;;11.60;49.20;;;;;;5090434;28;20562;-66
2021/04/25 07:11:19;;;;;;;14.38;9.90;;;11.80;49.10;;;;;;5091379;28;20846;-70
2021/04/25 07:13:47;;;;;;;13.43;9.55;;;11.90;49.60;;;;;;5090570;28;20203;-68
2021/04/25 07:16:14;;;;;;;14.43;10.13;;;12.00;50.00;;;;;;5090347;28;20189;-67
2021/04/25 07:18:40;;;;;;;13.68;10.38;;;12.20;49.30;;;;;;5090984;28;20189;-72
2021/04/25 07:21:06;;;;;;;13.75;9.55;;;12.30;49.40;;;;;;5088834;28;20192;-67
2021/04/25 07:23:34;;;;;;;12.18;9.95;;;12.50;48.30;;;;;;5090733;28;20197;-66
2021/04/25 07:26:00;;;;;;;13.90;9.13;;;12.60;48.00;;;;;;5087939;28;20192;-68
2021/04/25 07:28:27;;;;;;;11.48;9.43;;;12.70;47.90;;;;;;5090470;28;20201;-67
2021/04/25 07:30:54;;;;;;;13.00;8.50;;;12.90;48.30;;;;;;5090262;28;20229;-67
2021/04/25 07:33:22;;;;;;;13.43;9.68;;;13.10;47.60;;;;;;5090693;28;20193;-68
2021/04/25 07:35:49;;;;;;;14.73;9.80;;;13.10;45.50;;;;;;5088288;28;20193;-68
2021/04/25 07:38:15;;;;;;;14.73;11.52;;;13.30;46.10;;;;;;5091158;28;20279;-66
2021/04/25 07:40:43;;;;;;;16.73;10.25;;;13.40;45.50;;;;;;5088550;28;20652;-66
2021/04/25 07:43:09;;;;;;;18.52;10.00;;;13.60;45.80;;;;;;5090745;28;20556;-66
2021/04/25 07:45:36;;;;;;;13.40;10.85;;;13.80;45.30;;;;;;5086780;28;20598;-69
2021/04/25 07:48:03;;;;;;;15.15;10.40;;;13.90;43.80;;;;;;5090770;28;20242;-68
2021/04/25 07:50:29;;;;;;;11.30;9.57;;;14.00;45.90;;;;;;5086963;28;20788;-68
2021/04/25 07:52:56;;;;;;;14.00;9.80;;;14.30;45.00;;;;;;5090659;28;20208;-68
2021/04/25 07:55:23;;;;;;;18.08;10.45;;;14.40;44.70;;;;;;5090490;28;20188;-69
2021/04/25 07:57:51;;;;;;;15.50;8.93;;;14.60;44.40;;;;;;5091278;28;20220;-68
2021/04/25 08:00:18;;;;;;;12.90;9.75;;;14.70;43.50;;;;;;5078116;28;20204;-68
2021/04/25 08:02:44;;;;;;;12.32;10.07;;;14.90;43.80;;;;;;5072374;28;20185;-68
2021/04/25 08:05:12;;;;;;;12.90;9.83;;;15.10;43.80;;;;;;5083958;28;20686;-70
2021/04/25 08:07:39;;;;;;;13.30;10.80;;;15.30;43.60;;;;;;5080833;28;20438;-71
2021/04/25 08:10:07;;;;;;;13.63;9.88;;;15.50;43.50;;;;;;5083410;28;20971;-68
2021/04/25 08:12:33;;;;;;;13.93;10.20;;;15.70;42.80;;;;;;5086618;28;20199;-67
2021/04/25 08:15:01;;;;;;;16.57;9.93;;;15.90;42.20;;;;;;5072171;28;20493;-68
2021/04/25 08:17:27;;;;;;;13.73;11.37;;;16.00;42.20;;;;;;5075779;28;20971;-68
2021/04/25 08:19:54;;;;;;;15.90;10.83;;;16.20;41.60;;;;;;5078116;28;20979;-68
2021/04/25 08:22:20;;;;;;;13.90;10.60;;;16.40;41.40;;;;;;5074225;28;20447;-68
2021/04/25 08:24:47;;;;;;;13.47;10.47;;;16.60;42.20;;;;;;5091955;28;20439;-68
2021/04/25 08:27:14;;;;;;;14.50;10.93;;;16.80;40.90;;;;;;5091314;28;20445;-70
2021/04/25 08:29:41;;;;;;;17.63;10.67;;;16.90;39.20;;;;;;5083091;28;20445;-68
2021/04/25 08:32:08;;;;;;;11.83;10.13;;;17.00;39.50;;;;;;5092141;28;20486;-68
2021/04/25 08:34:35;;;;;;;12.97;10.57;;;17.10;39.30;;;;;;5090493;28;20496;-68
2021/04/25 08:37:01;;;;;;;12.20;10.90;;;17.20;39.20;;;;;;5092031;28;20551;-69
2021/04/25 08:39:28;;;;;;;15.27;10.97;;;17.40;40.20;;;;;;5073557;28;20471;-69
2021/04/25 08:41:56;;;;;;;10.73;9.07;;;17.60;38.60;;;;;;5071907;28;20439;-67
2021/04/25 08:44:23;;;;;;;12.40;11.10;;;17.70;39.20;;;;;;5088208;28;20435;-68
2021/04/25 08:46:51;;;;;;;12.37;11.07;;;17.80;38.70;;;;;;5093237;28;20442;-68
2021/04/25 08:49:23;;;;;;;17.57;9.70;;;18.00;38.00;;;;;;5080117;28;20458;-68
2021/04/25 08:51:51;;;;;;;15.30;9.30;;;18.10;37.60;;;;;;5075746;28;20483;-69
2021/04/25 08:54:23;;;;;;;10.63;9.47;;;18.30;38.50;;;;;;5091176;28;20435;-68
2021/04/25 08:56:50;;;;;;;12.57;10.17;;;18.40;38.30;;;;;;5095599;28;20435;-68
2021/04/25 08:59:16;;;;;;;13.10;10.47;;;18.60;38.20;;;;;;5080230;28;20440;-68
2021/04/25 09:01:43;;;;;;;13.10;10.93;;;18.70;37.90;;;;;;5075369;28;20813;-68
2021/04/25 09:04:10;;;;;;;11.70;9.67;;;18.90;37.20;;;;;;5088576;28;20435;-68
2021/04/25 09:06:55;;;;;;;12.27;9.70;;;19.10;37.50;;;;;;5113676;28;20430;-68
2021/04/25 09:09:40;;;;;;;10.87;8.80;;;19.20;35.80;;;;;;5092934;28;20481;-68
2021/04/25 09:12:07;;;;;;;14.90;9.40;;;19.30;36.00;;;;;;5094563;28;20482;-72
2021/04/25 09:14:38;;;;;;;11.37;8.30;;;19.50;33.90;;;;;;5093589;28;20431;-68
2021/04/25 09:17:06;;;;;;;11.23;10.10;;;19.70;34.60;;;;;;5095806;28;20526;-68
2021/04/25 09:19:53;;;;;;;16.13;9.40;;;19.90;35.00;;;;;;5094791;28;20519;-68
2021/04/25 09:22:22;;;;;;;14.60;9.70;;;20.20;33.20;;;;;;5094816;28;20850;-69
2021/04/25 09:24:49;;;;;;;13.60;8.93;;;20.30;33.90;;;;;;5088162;28;20444;-70
2021/04/25 09:27:26;;;;;;;15.77;11.17;;;20.60;33.80;;;;;;5075439;28;20434;-68
2021/04/25 09:29:55;;;;;;;13.10;9.67;;;20.60;31.90;;;;;;5075230;28;20432;-69
2021/04/25 09:32:24;;;;;;;15.10;8.87;;;20.80;32.10;;;;;;5079884;28;20435;-69
2021/04/25 09:34:55;;;;;;;10.97;8.43;;;20.90;32.10;;;;;;5095076;28;20480;-70
2021/04/25 09:37:23;;;;;;;14.07;8.93;;;21.10;31.60;;;;;;5089534;28;20468;-69
2021/04/25 09:40:02;;;;;;;11.70;8.47;;;21.10;31.20;;;;;;5074609;28;20447;-69
2021/04/25 09:42:29;;;;;;;13.37;9.43;;;21.20;30.70;;;;;;5080158;28;20818;-69
2021/04/25 09:44:56;;;;;;;11.37;8.17;;;21.40;30.50;;;;;;5094095;28;20889;-69
2021/04/25 09:47:31;;;;;;;13.80;9.83;;;21.50;30.10;;;;;;5077885;28;20482;-69
2021/04/25 09:50:00;;;;;;;10.30;7.10;;;21.50;29.50;;;;;;5091885;28;20435;-69
2021/04/25 09:52:37;;;;;;;12.80;8.10;;;21.60;30.10;;;;;;5091659;28;20490;-69
2021/04/25 09:55:27;;;;;;;8.97;7.70;;;21.70;28.70;;;;;;5085124;28;20787;-70
2021/04/25 09:57:55;;;;;;;11.00;7.97;;;21.90;29.70;;;;;;5072005;28;20443;-68
2021/04/25 10:00:23;;;;;;;13.33;8.20;;;22.00;28.50;;;;;;5072916;28;20478;-72
2021/04/25 10:02:58;;;;;;;11.60;7.57;;;22.10;28.10;;;;;;5072071;28;20432;-71
2021/04/25 10:05:26;;;;;;;10.27;8.57;;;22.20;28.90;;;;;;5079684;28;20434;-69
2021/04/25 10:07:54;;;;;;;12.80;7.57;;;22.30;28.10;;;;;;5091738;28;20496;-70
2021/04/25 10:10:21;;;;;;;11.13;8.07;;;22.30;28.10;;;;;;5091812;28;20466;-71
2021/04/25 10:12:49;;;;;;;18.10;9.07;;;22.30;27.00;;;;;;5091828;28;20613;-68
2021/04/25 10:15:21;;;;;;;10.97;7.63;;;22.30;27.20;;;;;;5084577;28;20897;-73
2021/04/25 10:17:52;;;;;;;10.73;7.00;;;22.30;26.90;;;;;;5089947;28;20446;-69
2021/04/25 10:20:20;;;;;;;14.43;7.50;;;22.30;27.40;;;;;;5085118;28;20436;-70
2021/04/25 10:22:48;;;;;;;10.50;7.53;;;22.40;27.40;;;;;;5083493;28;20474;-70
2021/04/25 10:25:31;;;;;;;8.93;7.40;;;22.50;27.00;;;;;;5086371;28;20448;-70
2021/04/25 10:28:01;;;;;;;10.00;7.77;;;22.50;27.70;;;;;;5078780;28;20442;-70
2021/04/25 10:30:33;;;;;;;12.20;7.50;;;22.60;27.50;;;;;;5076247;28;20562;-71
2021/04/25 10:33:00;;;;;;;10.60;7.37;;;22.60;27.40;;;;;;5075055;28;20469;-69
2021/04/25 10:35:29;;;;;;;10.00;6.60;;;22.70;27.20;;;;;;5076661;28;20462;-70
2021/04/25 10:37:56;;;;;;;11.30;7.00;;;22.80;26.70;;;;;;5077375;28;20467;-70
2021/04/25 10:40:30;;;;;;;12.40;7.10;;;22.90;27.50;;;;;;5076663;28;20537;-69
2021/04/25 10:42:59;;;;;;;12.60;7.00;;;23.00;25.40;;;;;;5077445;28;21864;-69
2021/04/25 10:45:30;;;;;;;9.50;7.63;;;23.20;25.00;;;;;;5077368;28;20467;-69
2021/04/25 10:48:21;;;;;;;12.90;8.40;;;23.20;25.50;;;;;;5078515;28;20456;-72
2021/04/25 10:50:50;;;;;;;10.73;7.70;;;23.30;25.10;;;;;;5075289;28;20522;-69
2021/04/25 10:53:26;;;;;;;8.97;7.37;;;23.30;26.00;;;;;;5089073;28;20459;-68
2021/04/25 10:56:31;;;;;;;10.10;7.30;;;23.40;24.90;;;;;;5089957;28;20438;-70
2021/04/25 10:59:26;;;;;;;7.97;6.90;;;23.40;24.90;;;;;;5089550;28;20435;-69
2021/04/25 11:01:53;;;;;;;11.07;8.13;;;23.30;25.90;;;;;;5088701;28;20928;-69
2021/04/25 11:04:59;;;;;;;12.20;7.13;;;23.30;24.80;;;;;;5089606;28;20439;-69
2021/04/25 11:07:45;;;;;;;9.27;7.10;;;23.20;24.50;;;;;;5090189;28;20796;-69
2021/04/25 11:10:19;;;;;;;14.77;7.33;;;23.20;24.80;;;;;;5086881;28;20992;-70
2021/04/25 11:12:48;;;;;;;9.53;7.47;;;23.10;25.10;;;;;;5085325;28;20491;-69
2021/04/25 11:15:51;;;;;;;12.73;7.53;;;23.10;24.90;;;;;;5090257;28;20447;-68
2021/04/25 11:18:48;;;;;;;10.30;7.63;;;23.30;25.30;;;;;;5088713;28;20525;-70
2021/04/25 11:21:56;;;;;;;9.37;7.27;;;23.30;24.30;;;;;;5089049;28;20446;-69
2021/04/25 11:24:41;;;;;;;8.97;6.60;;;23.40;25.80;;;;;;5088168;28;20431;-69
2021/04/25 11:27:10;;;;;;;14.93;7.80;;;23.50;26.30;;;;;;5090347;28;20453;-68
2021/04/25 11:29:59;;;;;;;9.93;7.57;;;23.60;26.20;;;;;;5089408;28;20443;-69
2021/04/25 11:32:37;;;;;;;9.30;6.90;;;23.60;26.10;;;;;;5088209;28;20837;-69
2021/04/25 11:35:13;;;;;;;11.47;6.80;;;23.60;25.90;;;;;;5088897;28;20438;-69
2021/04/25 11:37:44;;;;;;;10.23;7.13;;;23.40;25.50;;;;;;5088547;28;20482;-68
2021/04/25 11:40:21;;;;;;;10.23;6.87;;;23.50;25.60;;;;;;5089088;28;20521;-71
2021/04/25 11:42:54;;;;;;;12.67;7.37;;;23.50;25.60;;;;;;5087172;28;20457;-68
2021/04/25 11:45:28;;;;;;;8.57;6.83;;;23.50;24.60;;;;;;5089009;28;20500;-69
2021/04/25 11:47:57;;;;;;;8.97;6.37;;;23.60;25.40;;;;;;5087662;28;20439;-69
2021/04/25 11:50:34;;;;;;;10.60;7.90;;;23.50;24.90;;;;;;5088618;28;20429;-69
2021/04/25 11:53:01;;;;;;;9.73;6.70;;;23.40;25.50;;;;;;5089163;28;20439;-72
2021/04/25 11:55:29;;;;;;;8.87;7.10;;;23.40;25.30;;;;;;5090849;28;20439;-69
2021/04/25 11:57:55;;;;;;;12.83;6.80;;;23.40;26.10;;;;;;5089639;28;20440;-69
2021/04/25 12:00:26;;;;;;;10.40;7.50;;;23.40;26.60;;;;;;5089627;28;20435;-69
2021/04/25 12:02:55;;;;;;;10.90;7.20;;;23.40;26.00;;;;;;5086754;28;20439;-69
2021/04/25 12:05:23;;;;;;;9.70;8.03;;;23.40;25.70;;;;;;5089715;28;20505;-70
2021/04/25 12:07:54;;;;;;;9.33;7.40;;;23.30;25.90;;;;;;5085607;28;20431;-70
2021/04/25 12:10:24;;;;;;;10.00;6.97;;;23.40;25.70;;;;;;5086847;28;20758;-70
2021/04/25 12:12:55;;;;;;;12.40;7.83;;;23.40;26.00;;;;;;5090676;28;20949;-70
2021/04/25 12:15:23;;;;;;;12.40;8.63;;;23.40;25.20;;;;;;5080329;28;20447;-69
2021/04/25 12:17:53;;;;;;;14.17;9.07;;;23.40;26.40;;;;;;5074523;28;20461;-69
2021/04/25 12:20:20;;;;;;;15.40;7.60;;;23.20;24.60;;;;;;5071584;28;20439;-70
2021/04/25 12:22:47;;;;;;;9.57;7.20;;;23.10;24.10;;;;;;5075975;28;20790;-68
2021/04/25 12:25:14;;;;;;;10.53;7.77;;;23.20;25.20;;;;;;5076263;28;20519;-68
2021/04/25 12:27:52;;;;;;;13.50;8.57;;;23.20;25.90;;;;;;5076017;28;20470;-68
2021/04/25 12:30:21;;;;;;;10.13;8.30;;;23.30;24.90;;;;;;5075939;28;20934;-69
2021/04/25 12:32:47;;;;;;;9.13;7.97;;;23.30;24.60;;;;;;5076109;28;20534;-68
2021/04/25 12:35:23;;;;;;;16.50;9.27;;;23.20;25.00;;;;;;5076050;28;20467;-68
2021/04/25 12:37:49;;;;;;;12.37;7.67;;;23.10;25.30;;;;;;5075903;28;20492;-69
2021/04/25 12:40:32;;;;;;;11.17;8.03;;;23.10;25.20;;;;;;5076018;28;20522;-69
2021/04/25 12:43:09;;;;;;;13.17;9.43;;;23.10;26.20;;;;;;5075764;28;20534;-69
2021/04/25 12:45:36;;;;;;;11.87;7.97;;;23.00;26.00;;;;;;5075919;28;20463;-69
2021/04/25 12:48:38;;;;;;;15.43;8.33;;;23.00;25.90;;;;;;5075721;28;20518;-68
2021/04/25 12:51:15;;;;;;;11.93;8.50;;;23.00;26.10;;;;;;5075447;28;20490;-68
2021/04/25 12:53:44;;;;;;;11.53;8.13;;;23.20;25.50;;;;;;5075877;28;20867;-68
2021/04/25 12:56:26;;;;;;;11.20;8.87;;;23.10;25.30;;;;;;5075642;28;20447;-69